Bryson, Canada
Current Conditions -  °F | °C
As of 5:00 PM on Friday 19 Dec 2014 (Local Time) from CYWA Reporting Station
Clear Clear  
Wind Chill: 11°   Ceiling: Unl
Heat Index: 18°   Visibility: 9mi
Dew Point: 14°   Wind: 5mph
Humidity: 86%   Direction: 280°W
Pressure: 30.22"   Gusts: NA
Location:  45.68°N, 76.62°W
Report Text: CYWA 192200Z AUTO 28004KT 9SM CLR M08/M10 A3022 RMK SLP246
Loading
Personal Weather Stations






























Interactive Weather Map New forecast layout! Learn more

10-Day Weather Forecast

Advertisements
Track Severe Weather on mobile